Time;durP1;ratioP1;P1;durP2;ratioP2;P2;SDS_P1;SDS_P2;PMS_P1;PMS_P2;Temp;Humidity;BMP_temperature;BMP_pressure;BME280_temperature;BME280_humidity;BME280_pressure;Samples;Min_cycle;Max_cycle;Signal;HPM_P1;HPM_P2
2022/01/31 00:00:35;;;;;;;;;;;;;;;4.99;44.02;99482.91;4359386;32;33830;-87
2022/01/31 00:03:05;;;;;;;;;;;;;;;4.77;44.40;99498.19;4339759;32;33142;-88
2022/01/31 00:05:34;;;;;;;;;;;;;;;4.98;44.01;99483.72;4353269;32;33457;-88
2022/01/31 00:08:02;;;;;;;;;;;;;;;5.03;43.92;99498.34;4347262;32;33779;-87
2022/01/31 00:10:31;;;;;;;;;;;;;;;5.08;43.61;99490.69;4352912;32;33633;-88
2022/01/31 00:13:04;;;;;;;;;;;;;;;4.75;44.39;99489.59;4361945;32;34513;-87
2022/01/31 00:15:38;;;;;;;;;;;;;;;4.79;44.38;99504.19;4355837;32;33863;-86
2022/01/31 00:18:08;;;;;;;;;;;;;;;4.78;44.21;99497.31;4353907;32;34176;-87
2022/01/31 00:20:36;;;;;;;;;;;;;;;4.55;44.70;99499.72;4348764;32;34164;-87
2022/01/31 00:23:05;;;;;;;;;;;;;;;4.56;44.62;99483.47;4343689;32;33523;-88
2022/01/31 00:25:33;;;;;;;;;;;;;;;4.51;44.50;99482.56;4351555;32;34079;-87
2022/01/31 00:28:02;;;;;;;;;;;;;;;4.41;44.71;99486.75;4355270;32;33741;-87
2022/01/31 00:30:30;;;;;;;;;;;;;;;4.37;44.97;99481.59;4353453;32;32856;-87
2022/01/31 00:32:59;;;;;;;;;;;;;;;4.63;44.19;99487.78;4354194;32;33771;-87
2022/01/31 00:35:29;;;;;;;;;;;;;;;4.64;44.06;99475.81;4351375;32;33874;-87
2022/01/31 00:37:57;;;;;;;;;;;;;;;4.49;44.22;99469.72;4358064;32;34949;-85
2022/01/31 00:40:26;;;;;;;;;;;;;;;4.58;44.11;99465.50;4360044;32;34139;-87
2022/01/31 00:42:54;;;;;;;;;;;;;;;4.76;43.61;99467.31;4354261;32;32422;-88
2022/01/31 00:45:26;;;;;;;;;;;;;;;4.54;43.91;99466.31;4355693;32;33833;-87
2022/01/31 00:48:02;;;;;;;;;;;;;;;4.72;43.56;99461.31;4362433;32;33966;-87
2022/01/31 00:50:37;;;;;;;;;;;;;;;4.69;43.58;99459.59;4361960;32;33708;-87
2022/01/31 00:53:06;;;;;;;;;;;;;;;4.63;44.00;99451.81;4364181;32;33882;-87
2022/01/31 00:55:35;;;;;;;;;;;;;;;4.74;43.58;99459.63;4363266;32;33597;-86
2022/01/31 00:58:03;;;;;;;;;;;;;;;4.57;43.77;99456.94;4361505;32;34562;-87
2022/01/31 01:00:32;;;;;;;;;;;;;;;4.65;43.69;99462.97;4356830;32;32916;-87
2022/01/31 01:03:00;;;;;;;;;;;;;;;4.83;43.14;99459.69;4356079;32;33843;-87
2022/01/31 01:05:29;;;;;;;;;;;;;;;4.84;42.99;99463.09;4359532;32;34285;-87
2022/01/31 01:08:03;;;;;;;;;;;;;;;4.87;42.92;99463.97;4358932;32;34453;-88
2022/01/31 01:10:33;;;;;;;;;;;;;;;4.73;42.93;99447.59;4357006;32;33176;-87
2022/01/31 01:13:01;;;;;;;;;;;;;;;4.84;42.74;99471.66;4355735;32;34886;-87
2022/01/31 01:15:30;;;;;;;;;;;;;;;4.49;43.43;99473.97;4353919;32;34448;-87
2022/01/31 01:17:59;;;;;;;;;;;;;;;4.74;43.12;99477.59;4358391;32;34180;-89
2022/01/31 01:20:28;;;;;;;;;;;;;;;4.68;42.98;99485.25;4362825;32;33071;-87
2022/01/31 01:22:57;;;;;;;;;;;;;;;4.99;42.50;99477.75;4351249;32;34494;-88
2022/01/31 01:25:26;;;;;;;;;;;;;;;4.84;42.42;99484.53;4352229;32;34108;-88
2022/01/31 01:28:13;;;;;;;;;;;;;;;5.00;42.06;99475.22;4356320;32;34117;-87
2022/01/31 01:30:41;;;;;;;;;;;;;;;5.07;41.84;99483.78;4355943;32;32167;-87
2022/01/31 01:33:18;;;;;;;;;;;;;;;4.99;42.21;99470.06;4341071;32;35370;-88
2022/01/31 01:35:49;;;;;;;;;;;;;;;4.89;42.47;99464.00;4361373;32;34268;-87
2022/01/31 01:38:18;;;;;;;;;;;;;;;5.20;41.72;99471.88;4356364;32;34894;-87
2022/01/31 01:40:50;;;;;;;;;;;;;;;4.88;41.95;99468.28;4356210;32;33207;-87
2022/01/31 01:43:19;;;;;;;;;;;;;;;4.68;42.56;99465.56;4356183;32;34809;-88
2022/01/31 01:45:50;;;;;;;;;;;;;;;5.02;41.83;99454.63;4353094;32;34312;-87
2022/01/31 01:48:19;;;;;;;;;;;;;;;4.83;42.03;99454.53;4347537;33;34223;-87
2022/01/31 01:50:48;;;;;;;;;;;;;;;4.81;42.17;99442.50;4340987;33;33077;-87
2022/01/31 01:53:17;;;;;;;;;;;;;;;4.73;41.99;99449.31;4349779;32;34946;-87
2022/01/31 01:55:46;;;;;;;;;;;;;;;4.52;42.57;99430.34;4343131;32;34697;-87
2022/01/31 01:58:17;;;;;;;;;;;;;;;4.63;42.54;99418.41;4357109;32;34206;-87
2022/01/31 02:00:58;;;;;;;;;;;;;;;4.66;42.45;99403.03;4347926;32;33792;-89
2022/01/31 02:03:28;;;;;;;;;;;;;;;4.64;42.47;99412.44;4356390;32;33725;-88
2022/01/31 02:05:57;;;;;;;;;;;;;;;4.57;42.67;99402.12;4356747;32;33859;-88
2022/01/31 02:08:27;;;;;;;;;;;;;;;4.74;42.39;99403.09;4356702;32;33820;-89
2022/01/31 02:10:56;;;;;;;;;;;;;;;4.73;42.33;99406.50;4356771;32;34434;-87
2022/01/31 02:13:26;;;;;;;;;;;;;;;4.74;42.34;99409.94;4356783;32;34219;-88
2022/01/31 02:15:57;;;;;;;;;;;;;;;4.94;42.16;99416.03;4348099;32;34616;-87
2022/01/31 02:18:28;;;;;;;;;;;;;;;5.07;41.68;99406.66;4342955;32;34499;-87
2022/01/31 02:20:59;;;;;;;;;;;;;;;4.90;42.25;99409.16;4356613;32;34071;-87
2022/01/31 02:23:28;;;;;;;;;;;;;;;5.16;42.15;99418.72;4356332;32;34752;-88
2022/01/31 02:26:01;;;;;;;;;;;;;;;5.41;41.65;99409.34;4356807;32;33064;-87
2022/01/31 02:28:33;;;;;;;;;;;;;;;5.26;42.27;99411.03;4348327;32;34013;-87
2022/01/31 02:31:02;;;;;;;;;;;;;;;5.25;42.10;99403.31;4355028;32;33831;-87
2022/01/31 02:33:32;;;;;;;;;;;;;;;5.25;42.54;99406.75;4356681;32;33568;-87
2022/01/31 02:36:04;;;;;;;;;;;;;;;4.95;43.18;99410.03;4358305;32;35044;-87
2022/01/31 02:38:32;;;;;;;;;;;;;;;4.79;43.40;99396.25;4357920;32;34908;-87
2022/01/31 02:41:02;;;;;;;;;;;;;;;5.06;42.94;99404.97;4357700;32;33111;-87
2022/01/31 02:43:31;;;;;;;;;;;;;;;4.99;43.14;99395.50;4363052;32;34236;-88
2022/01/31 02:46:00;;;;;;;;;;;;;;;5.03;43.10;99394.66;4358656;32;34285;-88
2022/01/31 02:48:33;;;;;;;;;;;;;;;5.09;42.97;99387.81;4354986;32;34064;-88
2022/01/31 02:51:08;;;;;;;;;;;;;;;4.97;43.06;99376.63;4344390;32;32919;-86
2022/01/31 02:53:40;;;;;;;;;;;;;;;4.92;42.79;99368.91;4358046;32;34020;-87
2022/01/31 02:56:10;;;;;;;;;;;;;;;4.69;43.59;99358.53;4363079;32;34032;-87
2022/01/31 02:58:39;;;;;;;;;;;;;;;4.80;43.12;99376.56;4355522;32;33303;-88
2022/01/31 03:01:08;;;;;;;;;;;;;;;4.79;43.24;99356.84;4348024;32;33909;-87
2022/01/31 03:03:37;;;;;;;;;;;;;;;4.72;43.09;99350.81;4346876;32;34030;-87
2022/01/31 03:06:07;;;;;;;;;;;;;;;4.68;43.41;99351.66;4336683;32;31762;-88
2022/01/31 03:08:36;;;;;;;;;;;;;;;4.53;43.69;99351.56;4358185;32;33407;-88
2022/01/31 03:11:07;;;;;;;;;;;;;;;4.76;43.19;99343.97;4355577;32;33171;-87
2022/01/31 03:13:37;;;;;;;;;;;;;;;4.61;43.50;99365.31;4357883;32;34205;-87
2022/01/31 03:16:06;;;;;;;;;;;;;;;4.47;43.65;99353.25;4355966;32;34579;-87
2022/01/31 03:18:38;;;;;;;;;;;;;;;4.76;43.05;99352.56;4356970;32;34902;-87
2022/01/31 03:21:08;;;;;;;;;;;;;;;4.75;43.00;99366.25;4356092;32;34579;-87
2022/01/31 03:23:37;;;;;;;;;;;;;;;4.65;43.19;99355.06;4345439;33;33669;-88
2022/01/31 03:26:06;;;;;;;;;;;;;;;4.79;42.96;99356.84;4352414;32;34087;-87
2022/01/31 03:28:36;;;;;;;;;;;;;;;4.74;43.01;99341.41;4357517;32;33198;-87
2022/01/31 03:31:05;;;;;;;;;;;;;;;4.79;42.93;99341.44;4356528;32;33342;-88
2022/01/31 03:33:34;;;;;;;;;;;;;;;4.84;42.94;99338.03;4357207;32;34190;-87
2022/01/31 03:36:03;;;;;;;;;;;;;;;4.93;42.86;99329.50;4362729;32;35573;-88
2022/01/31 03:38:34;;;;;;;;;;;;;;;4.95;42.46;99340.63;4343859;32;33763;-88
2022/01/31 03:41:03;;;;;;;;;;;;;;;4.88;42.43;99316.63;4349596;32;33351;-87
2022/01/31 03:43:32;;;;;;;;;;;;;;;4.92;42.18;99320.91;4351655;32;34722;-87
2022/01/31 03:46:01;;;;;;;;;;;;;;;4.98;42.14;99320.09;4356993;32;34487;-88
2022/01/31 03:48:30;;;;;;;;;;;;;;;4.89;42.14;99320.91;4343883;32;33815;-87
2022/01/31 03:51:00;;;;;;;;;;;;;;;4.99;41.83;99333.81;4362889;32;33450;-87
2022/01/31 03:53:30;;;;;;;;;;;;;;;5.09;41.37;99328.69;4357962;32;34728;-88
2022/01/31 03:56:00;;;;;;;;;;;;;;;4.99;41.45;99331.22;4353726;32;34054;-87
2022/01/31 03:58:30;;;;;;;;;;;;;;;4.85;41.85;99339.72;4350865;32;35502;-87
2022/01/31 04:00:59;;;;;;;;;;;;;;;4.69;41.81;99331.09;4356001;32;34410;-89
2022/01/31 04:03:28;;;;;;;;;;;;;;;4.64;41.61;99319.06;4362931;32;33661;-87
2022/01/31 04:05:56;;;;;;;;;;;;;;;4.86;41.43;99302.06;4343064;32;35240;-87
2022/01/31 04:08:25;;;;;;;;;;;;;;;4.84;41.20;99296.91;4341172;33;34728;-87
2022/01/31 04:10:53;;;;;;;;;;;;;;;4.51;41.76;99305.31;4347104;32;33212;-88
2022/01/31 04:13:26;;;;;;;;;;;;;;;4.67;41.50;99291.69;4357653;32;34137;-87
2022/01/31 04:15:54;;;;;;;;;;;;;;;4.69;41.39;99287.44;4362355;32;33165;-88
2022/01/31 04:18:23;;;;;;;;;;;;;;;4.90;41.04;99288.34;4357334;32;33705;-88
2022/01/31 04:20:51;;;;;;;;;;;;;;;4.92;41.16;99284.06;4357478;32;33651;-88
2022/01/31 04:23:21;;;;;;;;;;;;;;;4.95;40.88;99270.37;4357646;32;34133;-89
2022/01/31 04:25:54;;;;;;;;;;;;;;;4.72;40.99;99266.03;4357420;32;33211;-86
2022/01/31 04:28:29;;;;;;;;;;;;;;;4.56;41.26;99269.37;4341249;33;33947;-87
2022/01/31 04:31:01;;;;;;;;;;;;;;;4.68;41.12;99259.16;4354265;32;33731;-86
2022/01/31 04:33:29;;;;;;;;;;;;;;;4.52;41.16;99276.22;4336496;32;34846;-87
2022/01/31 04:35:58;;;;;;;;;;;;;;;4.59;40.98;99266.81;4296083;33;33860;-87
2022/01/31 04:38:26;;;;;;;;;;;;;;;4.66;40.80;99282.28;4345200;32;31704;-87
2022/01/31 04:40:54;;;;;;;;;;;;;;;4.77;40.89;99297.72;4296046;33;33350;-87
2022/01/31 04:43:24;;;;;;;;;;;;;;;4.82;40.58;99284.91;4301567;33;33834;-87
2022/01/31 04:45:54;;;;;;;;;;;;;;;4.89;40.45;99286.63;4290778;33;34890;-87
2022/01/31 04:48:23;;;;;;;;;;;;;;;4.89;40.49;99279.78;4286108;32;34134;-87
2022/01/31 04:50:51;;;;;;;;;;;;;;;4.83;40.80;99271.19;4295894;33;33061;-87
2022/01/31 04:53:20;;;;;;;;;;;;;;;4.80;40.83;99248.06;4296443;33;34126;-87
2022/01/31 04:55:50;;;;;;;;;;;;;;;4.60;41.32;99251.41;4301044;33;34018;-87
2022/01/31 04:58:19;;;;;;;;;;;;;;;4.72;41.02;99249.75;4297374;33;34052;-87
2022/01/31 05:00:49;;;;;;;;;;;;;;;4.91;40.78;99241.25;4295842;33;33462;-87
2022/01/31 05:03:19;;;;;;;;;;;;;;;4.79;41.00;99239.50;4296519;33;32958;-87
2022/01/31 05:05:48;;;;;;;;;;;;;;;4.68;41.42;99254.87;4295811;33;34981;-87
2022/01/31 05:08:17;;;;;;;;;;;;;;;4.73;41.46;99257.44;4296419;33;34420;-87
2022/01/31 05:10:49;;;;;;;;;;;;;;;4.82;41.49;99266.91;4301293;33;32499;-87
2022/01/31 05:13:18;;;;;;;;;;;;;;;5.06;40.88;99272.13;4295500;33;34974;-87
2022/01/31 05:15:47;;;;;;;;;;;;;;;5.12;40.83;99259.28;4289685;33;34267;-88
2022/01/31 05:18:16;;;;;;;;;;;;;;;4.97;41.16;99255.81;4335148;32;32991;-87
2022/01/31 05:20:45;;;;;;;;;;;;;;;4.86;41.46;99264.34;4294085;33;33390;-87
2022/01/31 05:23:13;;;;;;;;;;;;;;;4.89;41.53;99258.38;4300982;33;33462;-87
2022/01/31 05:25:42;;;;;;;;;;;;;;;5.27;40.72;99249.88;4295874;33;34926;-87
2022/01/31 05:28:10;;;;;;;;;;;;;;;5.14;41.20;99244.69;4295983;33;33557;-87
2022/01/31 05:30:38;;;;;;;;;;;;;;;5.05;41.58;99234.41;4295446;33;34203;-87
2022/01/31 05:33:07;;;;;;;;;;;;;;;5.21;41.24;99229.28;4297308;33;33581;-88
2022/01/31 05:35:37;;;;;;;;;;;;;;;5.22;41.08;99221.59;4347386;32;35006;-87
2022/01/31 05:38:05;;;;;;;;;;;;;;;4.86;41.84;99206.97;4283811;32;34074;-87
2022/01/31 05:40:33;;;;;;;;;;;;;;;4.48;42.45;99205.12;4344542;32;30783;-87
2022/01/31 05:43:04;;;;;;;;;;;;;;;4.80;41.99;99204.38;4295751;33;34203;-88
2022/01/31 05:45:33;;;;;;;;;;;;;;;4.52;42.46;99191.47;4290048;33;33709;-87
2022/01/31 05:48:01;;;;;;;;;;;;;;;4.64;42.28;99194.06;4348940;32;35308;-87
2022/01/31 05:50:30;;;;;;;;;;;;;;;4.50;42.83;99198.28;4346996;32;34169;-89
2022/01/31 05:53:00;;;;;;;;;;;;;;;4.48;42.84;99187.16;4331800;33;34737;-87
2022/01/31 05:55:29;;;;;;;;;;;;;;;4.59;42.34;99185.50;4295027;33;35116;-87
2022/01/31 05:57:58;;;;;;;;;;;;;;;4.51;43.01;99194.00;4295353;33;34007;-88
2022/01/31 06:00:26;;;;;;;;;;;;;;;4.64;42.80;99200.87;4294435;33;32899;-87
2022/01/31 06:02:57;;;;;;;;;;;;;;;4.76;42.59;99197.50;4295378;32;34838;-87
2022/01/31 06:05:26;;;;;;;;;;;;;;;4.94;42.52;99189.84;4294614;33;34630;-88
2022/01/31 06:07:54;;;;;;;;;;;;;;;4.94;42.33;99200.13;4294073;33;34143;-88
2022/01/31 06:10:24;;;;;;;;;;;;;;;4.57;43.24;99194.91;4295481;33;33295;-87
2022/01/31 06:12:54;;;;;;;;;;;;;;;4.66;43.43;99191.47;4289619;33;34743;-87
2022/01/31 06:15:24;;;;;;;;;;;;;;;4.55;43.69;99201.75;4343454;32;35246;-88
2022/01/31 06:17:52;;;;;;;;;;;;;;;4.53;44.03;99200.87;4338607;32;33945;-86
2022/01/31 06:20:27;;;;;;;;;;;;;;;4.54;43.86;99205.12;4326656;33;34270;-87
2022/01/31 06:22:55;;;;;;;;;;;;;;;4.37;44.38;99201.66;4285425;33;35278;-89
2022/01/31 06:25:26;;;;;;;;;;;;;;;4.65;44.02;99193.19;4343389;32;35076;-87
2022/01/31 06:27:55;;;;;;;;;;;;;;;4.62;43.99;99195.75;4345065;32;33941;-88
2022/01/31 06:30:25;;;;;;;;;;;;;;;4.60;44.03;99189.75;4300380;33;33739;-87
2022/01/31 06:32:54;;;;;;;;;;;;;;;4.69;44.00;99191.50;4354360;32;34314;-87
2022/01/31 06:35:23;;;;;;;;;;;;;;;4.65;44.06;99193.19;4356428;32;34308;-87
2022/01/31 06:37:52;;;;;;;;;;;;;;;4.81;43.91;99193.22;4356188;32;34183;-87
2022/01/31 06:40:20;;;;;;;;;;;;;;;4.87;43.71;99181.25;4345630;32;33559;-87
2022/01/31 06:42:51;;;;;;;;;;;;;;;5.08;43.01;99180.44;4345741;33;32318;-87
2022/01/31 06:45:19;;;;;;;;;;;;;;;5.06;43.44;99169.28;4342977;32;33936;-87
2022/01/31 06:47:48;;;;;;;;;;;;;;;5.15;43.28;99168.44;4355019;32;33815;-87
2022/01/31 06:50:16;;;;;;;;;;;;;;;5.31;42.71;99174.41;4355923;32;34070;-88
2022/01/31 06:52:49;;;;;;;;;;;;;;;5.33;42.76;99159.84;4355931;32;34802;-87
2022/01/31 06:55:20;;;;;;;;;;;;;;;5.16;43.32;99169.28;4360004;32;35162;-87
2022/01/31 06:57:51;;;;;;;;;;;;;;;5.40;42.78;99163.28;4348572;32;34061;-87
2022/01/31 07:00:20;;;;;;;;;;;;;;;5.34;43.22;99156.44;4341763;32;33677;-87
2022/01/31 07:02:49;;;;;;;;;;;;;;;5.55;42.55;99152.97;4356291;32;33889;-88
2022/01/31 07:05:18;;;;;;;;;;;;;;;5.67;42.64;99154.66;4341224;32;34275;-87
2022/01/31 07:07:47;;;;;;;;;;;;;;;5.66;42.51;99135.78;4359297;32;33873;-88
2022/01/31 07:10:16;;;;;;;;;;;;;;;5.54;42.99;99117.81;4361419;32;32871;-89
2022/01/31 07:12:51;;;;;;;;;;;;;;;5.07;44.13;99122.16;4341592;32;33899;-87
2022/01/31 07:15:21;;;;;;;;;;;;;;;5.47;43.39;99134.13;4360523;32;34995;-88
2022/01/31 07:17:50;;;;;;;;;;;;;;;5.45;43.75;99131.53;4360577;32;34046;-87
2022/01/31 07:20:33;;;;;;;;;;;;;;;5.61;43.43;99136.69;4363169;32;33272;-88
2022/01/31 07:23:14;;;;;;;;;;;;;;;5.73;43.47;99134.06;4365607;32;35560;-88
2022/01/31 07:25:44;;;;;;;;;;;;;;;5.86;43.29;99129.75;4370023;32;35036;-88
2022/01/31 07:28:16;;;;;;;;;;;;;;;5.87;43.24;99134.00;4362861;32;35135;-88
2022/01/31 07:30:47;;;;;;;;;;;;;;;6.40;41.40;99133.84;4359204;32;33807;-88
2022/01/31 07:33:16;;;;;;;;;;;;;;;6.41;41.60;99135.53;4356853;32;35158;-86
2022/01/31 07:35:46;;;;;;;;;;;;;;;6.42;41.13;99123.50;4360991;32;33924;-87
2022/01/31 07:38:14;;;;;;;;;;;;;;;6.37;41.59;99110.66;4362469;32;34282;-86
2022/01/31 07:40:43;;;;;;;;;;;;;;;6.34;41.76;99109.81;4357811;32;33407;-86
2022/01/31 07:43:11;;;;;;;;;;;;;;;6.51;41.38;99102.00;4342817;33;34802;-86
2022/01/31 07:45:40;;;;;;;;;;;;;;;6.49;41.52;99107.16;4353842;32;35040;-86
2022/01/31 07:48:10;;;;;;;;;;;;;;;6.70;41.11;99100.16;4357305;32;34138;-86
2022/01/31 07:50:39;;;;;;;;;;;;;;;6.49;41.23;99096.84;4362141;32;34081;-86
2022/01/31 07:53:09;;;;;;;;;;;;;;;6.49;41.40;99102.00;4359666;32;34864;-86
2022/01/31 07:55:38;;;;;;;;;;;;;;;6.69;41.16;99103.59;4350508;32;33864;-86
2022/01/31 07:58:07;;;;;;;;;;;;;;;6.51;41.38;99107.16;4356382;32;33385;-86
2022/01/31 08:00:45;;;;;;;;;;;;;;;6.57;41.55;99114.81;4332012;32;31405;-86
2022/01/31 08:03:17;;;;;;;;;;;;;;;6.56;41.90;99113.97;4356696;32;34030;-87
2022/01/31 08:05:46;;;;;;;;;;;;;;;6.56;42.18;99105.41;4361884;32;34640;-86
2022/01/31 08:08:15;;;;;;;;;;;;;;;6.56;42.26;99105.41;4358177;32;34922;-86
2022/01/31 08:10:44;;;;;;;;;;;;;;;6.67;42.30;99106.19;4356451;32;34130;-86
2022/01/31 08:13:15;;;;;;;;;;;;;;;6.78;42.18;99091.47;4345076;32;35107;-86
2022/01/31 08:15:49;;;;;;;;;;;;;;;6.90;42.05;99090.53;4329198;32;1184656;-86
2022/01/31 08:18:19;;;;;;;;;;;;;;;6.96;42.25;99081.88;4364462;32;33507;-86
2022/01/31 08:20:48;;;;;;;;;;;;;;;7.02;42.10;99071.53;4348807;32;31295;-86
2022/01/31 08:23:17;;;;;;;;;;;;;;;7.02;42.05;99068.94;4350828;32;33831;-86
2022/01/31 08:25:48;;;;;;;;;;;;;;;7.04;42.05;99064.66;4358958;32;34114;-86
2022/01/31 08:28:21;;;;;;;;;;;;;;;6.89;42.20;99057.06;4354213;32;34193;-87
2022/01/31 08:30:55;;;;;;;;;;;;;;;7.10;41.95;99056.84;4340035;32;34171;-86
2022/01/31 08:33:35;;;;;;;;;;;;;;;7.06;42.28;99068.06;4356888;32;34124;-86
2022/01/31 08:36:05;;;;;;;;;;;;;;;6.90;42.54;99066.47;4355253;32;34416;-86
2022/01/31 08:38:34;;;;;;;;;;;;;;;7.10;41.99;99074.88;4355616;32;34125;-86
2022/01/31 08:41:04;;;;;;;;;;;;;;;7.26;41.41;99073.88;4360328;32;33949;-88
2022/01/31 08:43:33;;;;;;;;;;;;;;;7.22;41.82;99077.38;4345782;32;34551;-85
2022/01/31 08:46:02;;;;;;;;;;;;;;;7.16;41.56;99063.69;4360155;32;34746;-86
2022/01/31 08:48:32;;;;;;;;;;;;;;;7.30;41.60;99064.41;4362699;32;34131;-86
2022/01/31 08:51:00;;;;;;;;;;;;;;;7.30;41.45;99061.81;4358971;32;34170;-86
2022/01/31 08:53:31;;;;;;;;;;;;;;;7.16;41.81;99058.53;4352306;32;34855;-86
2022/01/31 08:56:00;;;;;;;;;;;;;;;7.19;41.99;99063.63;4351992;32;34237;-86
2022/01/31 08:58:29;;;;;;;;;;;;;;;7.33;41.85;99056.63;4357197;32;33858;-88
2022/01/31 09:01:03;;;;;;;;;;;;;;;7.53;41.69;99058.97;4366292;32;34155;-86
2022/01/31 09:03:54;;;;;;;;;;;;;;;7.31;42.62;99050.63;4357485;32;34646;-87
2022/01/31 09:06:24;;;;;;;;;;;;;;;7.09;42.94;99042.25;4357435;32;34985;-86
2022/01/31 09:08:52;;;;;;;;;;;;;;;7.51;42.37;99041.81;4343462;32;34071;-87
2022/01/31 09:11:21;;;;;;;;;;;;;;;7.47;42.08;99041.00;4363612;32;31753;-86
2022/01/31 09:13:53;;;;;;;;;;;;;;;7.47;41.90;99041.84;4345378;32;35496;-86
2022/01/31 09:16:22;;;;;;;;;;;;;;;7.33;42.12;99045.44;4349068;32;34568;-86
2022/01/31 09:18:52;;;;;;;;;;;;;;;7.40;42.19;99037.62;4363152;32;33851;-86
2022/01/31 09:21:21;;;;;;;;;;;;;;;7.45;42.35;99035.00;4298613;32;33127;-86
2022/01/31 09:23:52;;;;;;;;;;;;;;;7.64;41.49;99035.66;4356763;32;34251;-86
2022/01/31 09:26:22;;;;;;;;;;;;;;;7.72;41.13;99043.28;4356865;32;33707;-86
2022/01/31 09:28:52;;;;;;;;;;;;;;;7.78;40.97;99032.87;4360539;32;33795;-86
2022/01/31 09:31:21;;;;;;;;;;;;;;;7.68;40.79;99024.38;4366843;32;33363;-86
2022/01/31 09:33:49;;;;;;;;;;;;;;;7.60;40.90;99021.91;4363572;32;34920;-86
2022/01/31 09:36:22;;;;;;;;;;;;;;;7.47;41.04;99010.03;4361275;32;34196;-85
2022/01/31 09:38:50;;;;;;;;;;;;;;;7.38;41.51;99010.13;4365156;32;33638;-86
2022/01/31 09:41:23;;;;;;;;;;;;;;;7.31;41.50;98999.00;4361789;32;33072;-86
2022/01/31 09:44:06;;;;;;;;;;;;;;;7.53;41.01;98980.69;4363276;32;34535;-86
2022/01/31 09:49:22;;;;;;;;;;;;;;;7.16;41.70;98968.22;4348226;32;34119;-86
2022/01/31 09:51:52;;;;;;;;;;;;;;;7.39;40.84;98968.84;4348968;32;32980;-86
2022/01/31 09:54:21;;;;;;;;;;;;;;;7.10;41.49;98961.41;4352065;32;34024;-86
2022/01/31 09:56:49;;;;;;;;;;;;;;;7.19;41.41;98953.56;4353596;32;34231;-85
2022/01/31 09:59:18;;;;;;;;;;;;;;;7.50;40.53;98944.63;4359266;32;33204;-86
2022/01/31 10:01:51;;;;;;;;;;;;;;;7.54;39.92;98944.56;4340191;32;33707;-86
2022/01/31 10:04:22;;;;;;;;;;;;;;;7.44;40.37;98941.25;4354517;32;34017;-86
2022/01/31 10:06:52;;;;;;;;;;;;;;;7.33;40.11;98931.91;4354521;32;34219;-86
2022/01/31 10:09:22;;;;;;;;;;;;;;;7.26;40.20;98923.41;4353252;32;34902;-86
2022/01/31 10:11:57;;;;;;;;;;;;;;;7.20;40.39;98933.78;4340439;32;34991;-86
2022/01/31 10:17:21;;;;;;;;;;;;;;;7.13;41.04;98917.53;4355485;32;34987;-86
2022/01/31 10:19:56;;;;;;;;;;;;;;;7.29;40.96;98913.03;4355033;32;33845;-88
2022/01/31 10:22:27;;;;;;;;;;;;;;;7.39;40.64;98916.34;4355368;32;33947;-86
2022/01/31 10:24:56;;;;;;;;;;;;;;;7.57;40.17;98912.69;4354869;32;34798;-86
2022/01/31 10:27:28;;;;;;;;;;;;;;;7.65;40.08;98906.53;4354883;32;33665;-87
2022/01/31 10:29:58;;;;;;;;;;;;;;;7.58;39.94;98886.84;4357972;32;34462;-85
2022/01/31 10:32:30;;;;;;;;;;;;;;;7.90;39.63;98880.34;4352167;32;32253;-86
2022/01/31 10:35:00;;;;;;;;;;;;;;;7.95;39.64;98877.69;4338157;32;35621;-86
2022/01/31 10:37:31;;;;;;;;;;;;;;;7.74;39.38;98877.16;4339462;32;34369;-86
2022/01/31 10:45:49;;;;;;;;;;;;;;;7.87;39.50;98870.91;4373358;32;34913;-86
2022/01/31 10:54:38;;;;;;;;;;;;;;;7.67;40.33;98842.81;4347177;33;34005;-86
2022/01/31 10:57:08;;;;;;;;;;;;;;;8.05;38.59;98843.97;4365032;32;33408;-86
2022/01/31 10:59:39;;;;;;;;;;;;;;;7.91;39.42;98833.84;4370757;32;33663;-85
2022/01/31 11:02:08;;;;;;;;;;;;;;;8.08;38.94;98823.25;4373144;32;34501;-85
2022/01/31 11:04:38;;;;;;;;;;;;;;;7.59;39.63;98821.44;4372685;32;33749;-85
2022/01/31 11:07:10;;;;;;;;;;;;;;;7.68;39.45;98818.75;4348817;32;33996;-88
2022/01/31 11:09:41;;;;;;;;;;;;;;;7.69;39.46;98811.84;4365445;32;32875;-88
2022/01/31 11:12:11;;;;;;;;;;;;;;;7.88;39.03;98812.41;4344437;32;35403;-86
2022/01/31 11:14:41;;;;;;;;;;;;;;;7.76;38.77;98807.44;4357107;32;33367;-86
2022/01/31 11:17:10;;;;;;;;;;;;;;;7.61;39.36;98803.34;4337934;32;34843;-85
2022/01/31 11:19:39;;;;;;;;;;;;;;;7.75;38.71;98792.81;4353774;32;34134;-88
2022/01/31 11:22:08;;;;;;;;;;;;;;;7.51;39.00;98773.41;4358848;32;34856;-86
2022/01/31 11:24:52;;;;;;;;;;;;;;;7.53;38.92;98764.75;4358322;32;33327;-87
2022/01/31 11:27:23;;;;;;;;;;;;;;;7.93;38.33;98747.78;4353367;32;33315;-86
2022/01/31 11:29:53;;;;;;;;;;;;;;;7.79;38.88;98735.94;4353082;32;33656;-85
2022/01/31 11:32:21;;;;;;;;;;;;;;;7.82;38.11;98725.53;4354041;32;33944;-86
2022/01/31 11:34:50;;;;;;;;;;;;;;;7.62;39.06;98717.31;4356033;32;33010;-86
2022/01/31 11:37:20;;;;;;;;;;;;;;;7.36;39.37;98707.41;4364169;32;34776;-86
2022/01/31 11:39:53;;;;;;;;;;;;;;;7.70;39.03;98712.84;4356899;32;34357;-86
2022/01/31 11:42:23;;;;;;;;;;;;;;;7.74;38.58;98724.00;4353909;32;34890;-86
2022/01/31 11:44:54;;;;;;;;;;;;;;;7.69;39.20;98719.75;4353458;32;33379;-85
2022/01/31 11:47:23;;;;;;;;;;;;;;;7.78;38.67;98713.59;4342296;32;34075;-85
2022/01/31 11:49:53;;;;;;;;;;;;;;;7.66;38.90;98703.47;4358231;32;34429;-85
2022/01/31 11:52:24;;;;;;;;;;;;;;;7.55;39.40;98685.56;4358936;32;35095;-85
2022/01/31 11:54:53;;;;;;;;;;;;;;;7.93;38.76;98667.72;4355745;32;32973;-86
2022/01/31 11:57:26;;;;;;;;;;;;;;;7.77;39.31;98644.75;4358444;32;34398;-86
2022/01/31 11:59:56;;;;;;;;;;;;;;;8.01;39.12;98683.91;4355557;32;34213;-86
2022/01/31 12:02:25;;;;;;;;;;;;;;;8.19;38.16;98687.84;4355667;32;33573;-86
2022/01/31 12:04:54;;;;;;;;;;;;;;;8.22;38.27;98687.81;4362165;32;32202;-85
2022/01/31 12:07:29;;;;;;;;;;;;;;;8.25;38.06;98683.41;4358952;32;34089;-86
2022/01/31 12:09:59;;;;;;;;;;;;;;;8.30;38.26;98676.41;4362902;32;33820;-87
2022/01/31 12:12:39;;;;;;;;;;;;;;;8.40;37.55;98684.03;4354250;32;35453;-87
2022/01/31 12:15:35;;;;;;;;;;;;;;;8.31;38.15;98703.97;4357472;32;34226;-86
2022/01/31 12:18:31;;;;;;;;;;;;;;;8.43;38.20;98697.75;4292515;32;33498;-86
2022/01/31 12:23:51;;;;;;;;;;;;;;;8.62;37.96;98699.94;4357678;32;34001;-86
2022/01/31 12:26:33;;;;;;;;;;;;;;;8.46;37.88;98691.66;4362506;32;32969;-85
2022/01/31 12:29:08;;;;;;;;;;;;;;;8.61;37.54;98690.50;4357337;32;33265;-86
2022/01/31 12:31:38;;;;;;;;;;;;;;;8.63;37.31;98686.12;4355948;32;34005;-85
2022/01/31 12:34:11;;;;;;;;;;;;;;;8.63;37.56;98671.47;4338060;32;35675;-86
2022/01/31 12:36:50;;;;;;;;;;;;;;;8.61;37.43;98646.53;4296045;33;32932;-85
2022/01/31 12:39:39;;;;;;;;;;;;;;;8.47;37.37;98645.09;4345280;32;34324;-86
2022/01/31 12:42:54;;;;;;;;;;;;;;;8.85;37.20;98632.22;4310418;33;34368;-85
2022/01/31 12:45:25;;;;;;;;;;;;;;;8.67;37.42;98626.53;4297144;33;34162;-87
2022/01/31 12:48:11;;;;;;;;;;;;;;;8.81;37.08;98627.97;4316376;33;32922;-85
2022/01/31 12:50:41;;;;;;;;;;;;;;;8.67;37.32;98630.88;4286590;33;34348;-86
2022/01/31 12:53:38;;;;;;;;;;;;;;;8.55;37.73;98626.81;4289058;33;34824;-85
2022/01/31 12:56:10;;;;;;;;;;;;;;;8.96;37.21;98628.50;4296340;33;33746;-86
2022/01/31 12:58:41;;;;;;;;;;;;;;;8.84;37.28;98622.72;4296001;33;34057;-85
2022/01/31 13:01:11;;;;;;;;;;;;;;;8.95;37.31;98621.59;4296231;33;34306;-86
2022/01/31 13:03:41;;;;;;;;;;;;;;;9.14;36.69;98614.25;4295850;33;35033;-85
2022/01/31 13:06:30;;;;;;;;;;;;;;;8.91;37.49;98604.44;4301585;33;34127;-86
2022/01/31 13:09:00;;;;;;;;;;;;;;;8.90;37.33;98596.75;4344899;32;33704;-87
2022/01/31 13:11:31;;;;;;;;;;;;;;;8.73;37.52;98608.31;4330309;32;33055;-85
2022/01/31 13:14:02;;;;;;;;;;;;;;;8.75;37.92;98597.94;4343772;32;33700;-86
2022/01/31 13:16:43;;;;;;;;;;;;;;;9.01;37.19;98596.47;4349518;32;34561;-86
2022/01/31 13:19:13;;;;;;;;;;;;;;;8.98;37.39;98587.88;4348148;32;32856;-85
2022/01/31 13:21:44;;;;;;;;;;;;;;;8.94;37.25;98575.94;4353069;32;32969;-86
2022/01/31 13:24:13;;;;;;;;;;;;;;;8.89;37.16;98570.03;4311762;32;35215;-85
2022/01/31 13:27:02;;;;;;;;;;;;;;;8.86;37.44;98559.75;4301413;32;34068;-85
2022/01/31 13:29:40;;;;;;;;;;;;;;;8.79;37.26;98557.34;4297883;32;33084;-86
2022/01/31 13:32:23;;;;;;;;;;;;;;;8.70;38.12;98558.44;4296516;32;34130;-86
2022/01/31 13:34:57;;;;;;;;;;;;;;;8.71;37.88;98547.19;4303767;32;33871;-85
2022/01/31 13:37:39;;;;;;;;;;;;;;;8.92;37.71;98551.00;4318132;32;34176;-86